Terminal Aerodrome Forecast
Issued by NWS

Home | Current Version | Previous Version | Text Only | Print | Product List | Glossary On
Versions: 1 2 3 4 5 6 7 8 9 10 11 12
000
FTUS43 KSGF 292320
TAFJLN
TAF
KJLN 292320Z 3000/3024 VRB05KT P6SM SCT035
     FM300300 VRB04KT P6SM BKN050
      TEMPO 3010/3013 5SM BR
     FM301500 18006KT P6SM SCT050=

USA.gov is the U.S. government's official web portal to all federal, state and local government web resources and services.